KBTA

Blair Municipal Airport

Blair, Nebraska, USA
METAR KBTA 241435Z AUTO 00000KT 10SM SCT120 25/20 A2983 RMK AO2 T02460201
Observed Flight Rules
Jun-24 @ 14:35 UTC (31 minutes ago) Visual Flight Rules
Visibility Clouds
10 miles
  • Scattered at 12,000' AGL
Temperatures Readings
Current 25°C / 77°F
Dewpoint 20°C / 68°F
Humidity 74%
Altimeter 29.83" Hg
Pressure 1010 hPa
Elevation 396
METAR KBTA 241435Z AUTO 00000KT 10SM SCT120 25/20 A2983 RMK AO2 T02460201
Observed Flight Rules
Jun-24 @ 14:35 UTC
(31 minutes ago)
VFR
Clouds
  • Scattered at 12,000' AGL
Temperature Dewpoint
25°C / 77°F 20°C / 68°F
Humidity Altimeter Pressure
74% 29.83" Hg 1010 hPa